createdAt,value
2023-01-13T00:00:31.440Z,97.20
2023-01-13T00:02:59.541Z,97.10
2023-01-13T00:05:28.379Z,97.10
2023-01-13T00:07:56.335Z,96.90
2023-01-13T00:10:24.286Z,96.80
2023-01-13T00:12:53.630Z,96.80
2023-01-13T00:15:23.134Z,96.80
2023-01-13T00:17:51.091Z,96.60
2023-01-13T00:20:19.314Z,96.60
2023-01-13T00:22:47.350Z,96.40
2023-01-13T00:25:15.416Z,96.30
2023-01-13T00:27:43.340Z,96.40
2023-01-13T00:30:12.287Z,96.40
2023-01-13T00:32:41.607Z,96.30
2023-01-13T00:35:10.344Z,96.20
2023-01-13T00:37:39.428Z,95.80
2023-01-13T00:40:08.779Z,95.20
2023-01-13T00:42:54.267Z,95.00
2023-01-13T00:45:22.202Z,95.00
2023-01-13T00:47:51.602Z,95.00
2023-01-13T00:50:19.755Z,95.00
2023-01-13T00:52:47.729Z,95.30
2023-01-13T00:55:15.842Z,95.60
2023-01-13T00:57:43.793Z,95.50
2023-01-13T01:00:13.001Z,95.80
2023-01-13T01:02:41.027Z,96.00
2023-01-13T01:05:11.329Z,96.10
2023-01-13T01:07:39.306Z,95.80
2023-01-13T01:10:08.082Z,95.70
2023-01-13T01:12:36.270Z,95.60
2023-01-13T01:15:06.114Z,95.40
2023-01-13T01:17:34.179Z,95.40
2023-01-13T01:20:02.126Z,95.20
2023-01-13T01:22:31.560Z,95.30
2023-01-13T01:24:59.865Z,94.40
2023-01-13T01:27:27.833Z,94.50
2023-01-13T01:29:55.914Z,94.70
2023-01-13T01:32:23.872Z,94.90
2023-01-13T01:34:52.423Z,94.40
2023-01-13T01:37:20.426Z,94.20
2023-01-13T01:39:49.736Z,94.10
2023-01-13T01:42:36.166Z,93.80
2023-01-13T01:45:14.987Z,93.90
2023-01-13T01:47:43.707Z,93.80
2023-01-13T01:50:12.913Z,93.40
2023-01-13T01:52:43.692Z,93.10
2023-01-13T01:55:17.558Z,93.10
2023-01-13T01:57:49.973Z,93.10
2023-01-13T02:00:18.386Z,92.70
2023-01-13T02:02:49.032Z,92.10
2023-01-13T02:05:17.576Z,92.00
2023-01-13T02:07:48.786Z,92.30
2023-01-13T02:10:22.714Z,92.30
2023-01-13T02:12:50.860Z,92.70
2023-01-13T02:15:20.972Z,92.30
2023-01-13T02:18:01.375Z,92.20
2023-01-13T02:20:44.648Z,91.90
2023-01-13T02:24:04.542Z,92.10
2023-01-13T02:27:02.233Z,91.30
2023-01-13T02:30:06.269Z,91.10
2023-01-13T02:32:40.431Z,90.60
2023-01-13T02:35:13.554Z,90.80
2023-01-13T02:37:44.638Z,90.70
2023-01-13T02:40:19.144Z,90.60
2023-01-13T02:43:09.574Z,90.70
2023-01-13T02:45:46.757Z,90.40
2023-01-13T02:48:16.336Z,90.50
2023-01-13T02:50:48.686Z,90.50
2023-01-13T02:53:21.848Z,91.10
2023-01-13T02:55:54.072Z,91.10
2023-01-13T02:58:25.552Z,91.10
2023-01-13T03:00:56.172Z,91.10
2023-01-13T03:03:24.173Z,91.10
2023-01-13T03:05:55.152Z,91.40
2023-01-13T03:08:33.098Z,91.70
2023-01-13T03:11:07.273Z,92.10
2023-01-13T03:13:59.656Z,92.50
2023-01-13T03:16:41.914Z,92.50
2023-01-13T03:19:22.144Z,92.70
2023-01-13T03:21:54.799Z,93.00
2023-01-13T03:24:27.619Z,93.00
2023-01-13T03:27:01.816Z,92.40
2023-01-13T03:29:35.061Z,92.00
2023-01-13T03:32:07.809Z,92.20
2023-01-13T03:34:40.825Z,92.00
2023-01-13T03:37:10.333Z,91.70
2023-01-13T03:39:42.582Z,91.30
2023-01-13T03:42:14.980Z,91.10
2023-01-13T03:44:46.437Z,90.30
2023-01-13T03:47:22.277Z,89.80
2023-01-13T03:49:56.505Z,89.70
2023-01-13T03:52:27.580Z,87.60
2023-01-13T03:55:00.673Z,87.40
2023-01-13T03:57:34.438Z,87.90
2023-01-13T04:00:05.163Z,87.30
2023-01-13T04:02:42.744Z,86.70
2023-01-13T04:05:11.338Z,86.40
2023-01-13T04:07:47.305Z,87.10
2023-01-13T04:10:19.912Z,87.10
2023-01-13T04:13:04.282Z,86.10
2023-01-13T04:15:35.552Z,85.30
2023-01-13T04:18:12.451Z,85.10
2023-01-13T04:20:40.995Z,84.50
2023-01-13T04:23:09.249Z,85.80
2023-01-13T04:25:37.483Z,85.40
2023-01-13T04:28:05.687Z,85.20
2023-01-13T04:30:33.639Z,84.40
2023-01-13T04:33:01.537Z,83.70
2023-01-13T04:35:30.886Z,83.00
2023-01-13T04:38:02.451Z,84.80
2023-01-13T04:40:30.300Z,84.40
2023-01-13T04:42:58.146Z,84.90
2023-01-13T04:45:26.053Z,83.50
2023-01-13T04:47:53.992Z,84.20
2023-01-13T04:50:22.733Z,84.10
2023-01-13T04:52:52.978Z,83.70
2023-01-13T04:55:22.468Z,83.50
2023-01-13T04:57:50.571Z,84.40
2023-01-13T05:00:20.643Z,85.20
2023-01-13T05:02:50.476Z,85.70
2023-01-13T05:05:18.810Z,85.00
2023-01-13T05:07:47.022Z,86.40
2023-01-13T05:10:16.777Z,88.70
2023-01-13T05:13:02.126Z,89.40
2023-01-13T05:15:47.729Z,90.20
2023-01-13T05:18:16.309Z,90.30
2023-01-13T05:20:44.284Z,90.50
2023-01-13T05:23:29.800Z,90.50
2023-01-13T05:25:59.000Z,91.00
2023-01-13T05:28:26.895Z,91.10
2023-01-13T05:30:54.757Z,91.10
2023-01-13T05:33:22.607Z,91.10
2023-01-13T05:35:50.599Z,90.80
2023-01-13T05:38:18.956Z,91.10
2023-01-13T05:41:04.665Z,91.70
2023-01-13T05:43:34.919Z,91.90
2023-01-13T05:46:05.170Z,92.40
2023-01-13T05:48:34.784Z,92.90
2023-01-13T05:51:04.091Z,92.90
2023-01-13T05:53:32.783Z,93.10
2023-01-13T05:56:01.245Z,93.10
2023-01-13T05:58:29.300Z,93.60
2023-01-13T06:01:02.935Z,94.00
2023-01-13T06:03:30.827Z,94.40
2023-01-13T06:06:01.716Z,94.70
2023-01-13T06:08:30.471Z,94.50
2023-01-13T06:10:58.664Z,94.30
2023-01-13T06:13:26.861Z,94.70
2023-01-13T06:15:57.822Z,94.90
2023-01-13T06:18:27.865Z,95.10
2023-01-13T06:20:57.311Z,95.30
2023-01-13T06:23:25.773Z,95.40
2023-01-13T06:26:01.156Z,95.30
2023-01-13T06:28:29.094Z,95.70
2023-01-13T06:30:59.861Z,96.00
2023-01-13T06:33:34.086Z,96.30
2023-01-13T06:36:05.938Z,96.60
2023-01-13T06:38:37.602Z,96.80
2023-01-13T06:41:08.137Z,97.00
2023-01-13T06:43:35.844Z,97.00
2023-01-13T06:46:04.593Z,97.20
2023-01-13T06:48:35.610Z,97.40
2023-01-13T06:51:04.576Z,97.40
2023-01-13T06:53:32.986Z,97.50
2023-01-13T06:56:00.826Z,97.70
2023-01-13T06:58:28.833Z,98.20
2023-01-13T07:01:01.231Z,97.30
2023-01-13T07:03:29.140Z,93.50
2023-01-13T07:05:58.799Z,91.60
2023-01-13T07:08:26.746Z,93.20
2023-01-13T07:10:54.779Z,94.50
2023-01-13T07:13:40.252Z,95.30
2023-01-13T07:16:10.087Z,95.50
2023-01-13T07:18:38.295Z,95.80
2023-01-13T07:21:08.862Z,96.20
2023-01-13T07:23:39.526Z,96.10
2023-01-13T07:26:08.014Z,96.00
2023-01-13T07:28:36.253Z,96.00
2023-01-13T07:31:04.929Z,96.00
2023-01-13T07:33:33.409Z,96.10
2023-01-13T07:36:03.488Z,96.30
2023-01-13T07:38:33.958Z,96.30
2023-01-13T07:41:23.874Z,96.30
2023-01-13T07:43:51.525Z,96.40
2023-01-13T07:46:20.098Z,96.40
2023-01-13T07:48:49.149Z,96.30
2023-01-13T07:51:17.282Z,96.10
2023-01-13T07:53:46.524Z,96.00
2023-01-13T07:56:14.522Z,95.80
2023-01-13T07:58:42.428Z,95.50
2023-01-13T08:01:12.173Z,95.40
2023-01-13T08:03:40.786Z,95.40
2023-01-13T08:06:09.588Z,95.50
2023-01-13T08:08:37.895Z,95.70
2023-01-13T08:11:08.805Z,95.80
2023-01-13T08:13:36.883Z,95.90
2023-01-13T08:16:07.042Z,96.00
2023-01-13T08:18:36.241Z,96.00
2023-01-13T08:21:06.602Z,96.10
2023-01-13T08:23:34.682Z,96.10
2023-01-13T08:26:03.386Z,96.10
2023-01-13T08:28:32.706Z,96.00
2023-01-13T08:31:02.713Z,95.90
2023-01-13T08:33:30.868Z,95.90
2023-01-13T08:35:58.775Z,96.10
2023-01-13T08:38:27.052Z,96.20
2023-01-13T08:40:55.107Z,96.20
2023-01-13T08:43:23.014Z,96.20
2023-01-13T08:45:59.451Z,96.20
2023-01-13T08:48:29.691Z,96.20
2023-01-13T08:51:03.280Z,96.20
2023-01-13T08:53:33.400Z,96.20
2023-01-13T08:56:01.376Z,96.30
2023-01-13T08:58:29.510Z,96.40
2023-01-13T09:00:58.929Z,96.40
2023-01-13T09:03:26.901Z,96.50
2023-01-13T09:05:54.788Z,96.60
2023-01-13T09:08:22.653Z,96.50
2023-01-13T09:10:50.605Z,96.60
2023-01-13T09:13:17.533Z,96.60
2023-01-13T09:15:47.374Z,96.60
2023-01-13T09:18:16.658Z,96.50
2023-01-13T09:20:45.300Z,96.50
2023-01-13T09:23:13.172Z,96.50
2023-01-13T09:25:41.140Z,96.50
2023-01-13T09:28:09.286Z,96.30
2023-01-13T09:30:38.829Z,96.30
2023-01-13T09:33:24.541Z,96.40
2023-01-13T09:35:59.089Z,96.50
2023-01-13T09:38:27.032Z,96.80
2023-01-13T09:40:55.598Z,96.80
2023-01-13T09:43:46.764Z,96.90
2023-01-13T09:46:39.862Z,96.90
2023-01-13T09:49:15.963Z,97.00
2023-01-13T09:51:49.281Z,97.10
2023-01-13T09:54:21.870Z,97.00
2023-01-13T09:56:49.702Z,97.20
2023-01-13T09:59:18.157Z,97.40
2023-01-13T10:01:52.636Z,96.80
2023-01-13T10:04:20.679Z,96.00
2023-01-13T10:06:56.247Z,94.50
2023-01-13T10:09:28.028Z,94.10
2023-01-13T10:12:16.515Z,94.30
2023-01-13T10:14:52.482Z,93.60
2023-01-13T10:17:27.034Z,92.30
2023-01-13T10:20:03.354Z,91.60
2023-01-13T10:22:47.359Z,90.60
2023-01-13T10:25:41.277Z,90.90
2023-01-13T10:28:14.487Z,89.90
2023-01-13T10:30:44.249Z,89.50
2023-01-13T10:33:15.853Z,90.60
2023-01-13T10:35:52.510Z,90.00
2023-01-13T10:38:23.770Z,89.60
2023-01-13T10:40:54.719Z,89.80
2023-01-13T10:43:22.917Z,87.20
2023-01-13T10:45:59.596Z,85.20
2023-01-13T10:48:39.739Z,84.60
2023-01-13T10:51:24.369Z,85.00
2023-01-13T10:53:56.898Z,83.60
2023-01-13T10:56:26.591Z,82.70
2023-01-13T10:59:09.926Z,84.70
2023-01-13T11:01:38.211Z,85.90
2023-01-13T11:04:28.218Z,84.50
2023-01-13T11:06:56.308Z,80.70
2023-01-13T11:09:27.392Z,78.00
2023-01-13T11:11:56.852Z,78.30
2023-01-13T11:14:39.315Z,76.70
2023-01-13T11:17:33.652Z,78.20
2023-01-13T11:20:07.103Z,79.40
2023-01-13T11:22:40.292Z,77.40
2023-01-13T11:25:17.285Z,76.50
2023-01-13T11:27:52.470Z,76.20
2023-01-13T11:30:27.859Z,75.80
2023-01-13T11:33:16.439Z,74.70
2023-01-13T11:35:49.731Z,72.10
2023-01-13T11:38:28.575Z,71.20
2023-01-13T11:41:03.817Z,71.90
2023-01-13T11:43:37.499Z,65.80
2023-01-13T11:46:07.157Z,64.70
2023-01-13T11:48:40.985Z,64.60
2023-01-13T11:51:21.104Z,64.60
2023-01-13T11:54:04.497Z,66.30
2023-01-13T11:56:54.378Z,66.00
2023-01-13T11:59:54.982Z,67.90
2023-01-13T12:02:41.355Z,69.40
2023-01-13T12:05:18.932Z,70.20
2023-01-13T12:07:59.629Z,65.00
2023-01-13T12:10:43.753Z,65.80
2023-01-13T12:13:25.142Z,65.10
2023-01-13T12:16:12.367Z,67.80
2023-01-13T12:18:52.413Z,66.80
2023-01-13T12:21:22.470Z,65.90
2023-01-13T12:24:00.858Z,65.10
2023-01-13T12:26:33.851Z,64.60
2023-01-13T12:29:08.083Z,65.50
2023-01-13T12:31:38.313Z,66.10
2023-01-13T12:34:23.664Z,71.00
2023-01-13T12:36:59.687Z,73.20
2023-01-13T12:39:38.489Z,73.70
2023-01-13T12:42:30.579Z,74.60
2023-01-13T12:45:23.157Z,76.30
2023-01-13T12:47:51.203Z,75.20
2023-01-13T12:50:41.538Z,70.80
2023-01-13T12:53:32.738Z,69.40
2023-01-13T12:56:30.313Z,69.70
2023-01-13T12:59:49.145Z,70.50
2023-01-13T13:02:38.224Z,69.10
2023-01-13T13:05:44.794Z,70.20
2023-01-13T13:08:20.438Z,73.00
2023-01-13T13:11:01.338Z,75.60
2023-01-13T13:13:43.841Z,76.40
2023-01-13T13:16:44.250Z,74.90
2023-01-13T13:19:46.205Z,69.10
2023-01-13T13:22:39.735Z,66.00
2023-01-13T13:25:27.838Z,66.40
2023-01-13T13:28:19.267Z,61.50
2023-01-13T13:31:06.821Z,60.80
2023-01-13T13:34:02.889Z,59.00
2023-01-13T13:37:01.467Z,58.20
2023-01-13T13:39:49.526Z,56.80
2023-01-13T13:42:49.864Z,58.40
2023-01-13T13:45:39.912Z,59.40
2023-01-13T13:48:22.120Z,59.20
2023-01-13T13:50:50.783Z,59.50
2023-01-13T13:53:21.026Z,59.50
2023-01-13T13:55:57.321Z,60.00
2023-01-13T13:58:26.263Z,61.50
2023-01-13T14:00:54.750Z,62.80
2023-01-13T14:03:26.774Z,62.60
2023-01-13T14:05:57.109Z,62.10
2023-01-13T14:08:27.262Z,63.20
2023-01-13T14:10:55.319Z,64.20
2023-01-13T14:13:25.744Z,63.10
2023-01-13T14:15:58.693Z,63.00
2023-01-13T14:18:27.548Z,63.00
2023-01-13T14:21:04.524Z,63.00
2023-01-13T14:23:34.624Z,63.90
2023-01-13T14:26:04.550Z,64.50
2023-01-13T14:28:35.588Z,64.90
2023-01-13T14:31:04.162Z,64.80
2023-01-13T14:33:38.909Z,65.20
2023-01-13T14:36:18.551Z,66.10
2023-01-13T14:38:49.655Z,66.50
2023-01-13T14:41:21.612Z,67.50
2023-01-13T14:43:51.647Z,68.40
2023-01-13T14:46:22.209Z,70.80
2023-01-13T14:48:52.926Z,71.80
2023-01-13T14:51:27.606Z,73.40
2023-01-13T14:53:57.999Z,75.50
2023-01-13T14:56:47.329Z,77.00
2023-01-13T14:59:41.423Z,80.00
2023-01-13T15:02:44.706Z,83.20
2023-01-13T15:05:39.821Z,85.80
2023-01-13T15:08:34.697Z,88.00
2023-01-13T15:11:06.428Z,89.10
2023-01-13T15:13:40.952Z,90.30
2023-01-13T15:16:18.477Z,90.70
2023-01-13T15:18:46.793Z,91.00
2023-01-13T15:21:15.690Z,91.30
2023-01-13T15:23:44.256Z,91.30
2023-01-13T15:26:23.142Z,91.50
2023-01-13T15:28:52.525Z,91.60
2023-01-13T15:31:21.463Z,91.80
2023-01-13T15:33:49.856Z,91.70
2023-01-13T15:36:25.552Z,91.80
2023-01-13T15:38:53.676Z,92.00
2023-01-13T15:41:36.996Z,92.10
2023-01-13T15:44:23.130Z,92.40
2023-01-13T15:46:52.501Z,92.40
2023-01-13T15:49:26.371Z,92.80
2023-01-13T15:51:54.266Z,93.20
2023-01-13T15:54:24.580Z,93.70
2023-01-13T15:56:54.764Z,93.20
2023-01-13T15:59:25.533Z,93.10
2023-01-13T16:01:53.516Z,92.80
2023-01-13T16:04:21.392Z,92.70
2023-01-13T16:06:49.254Z,92.90
2023-01-13T16:09:17.788Z,92.60
2023-01-13T16:11:45.704Z,92.90
2023-01-13T16:14:14.998Z,93.10
2023-01-13T16:16:42.933Z,93.30
2023-01-13T16:19:13.027Z,93.00
2023-01-13T16:21:41.175Z,93.30
2023-01-13T16:24:09.193Z,93.40
2023-01-13T16:26:38.879Z,93.40
2023-01-13T16:29:08.077Z,92.90
2023-01-13T16:31:37.707Z,92.80
2023-01-13T16:34:06.773Z,92.80
2023-01-13T16:36:36.861Z,92.70
2023-01-13T16:39:05.691Z,91.90
2023-01-13T16:41:34.815Z,92.30
2023-01-13T16:44:06.041Z,92.60
2023-01-13T16:46:34.869Z,92.70
2023-01-13T16:49:06.728Z,93.00
2023-01-13T16:51:34.717Z,93.10
2023-01-13T16:54:02.649Z,93.00
2023-01-13T16:56:32.153Z,93.00
2023-01-13T16:59:03.195Z,92.80
2023-01-13T17:01:33.196Z,92.60
2023-01-13T17:04:01.445Z,92.30
2023-01-13T17:06:34.414Z,92.10
2023-01-13T17:09:03.285Z,92.00
2023-01-13T17:11:31.241Z,91.60
2023-01-13T17:13:59.220Z,91.40
2023-01-13T17:16:28.214Z,90.90
2023-01-13T17:18:56.410Z,90.20
2023-01-13T17:21:24.442Z,88.50
2023-01-13T17:23:53.637Z,88.30
2023-01-13T17:26:33.237Z,88.30
2023-01-13T17:29:02.266Z,86.80
2023-01-13T17:31:30.517Z,86.60
2023-01-13T17:33:58.491Z,86.30
2023-01-13T17:36:26.400Z,86.30
2023-01-13T17:38:56.149Z,86.90
2023-01-13T17:41:24.373Z,86.70
2023-01-13T17:43:52.809Z,87.00
2023-01-13T17:46:22.617Z,86.40
2023-01-13T17:48:52.640Z,85.60
2023-01-13T17:51:22.504Z,84.60
2023-01-13T17:53:50.409Z,85.60
2023-01-13T17:56:19.798Z,84.40
2023-01-13T17:58:47.765Z,83.80
2023-01-13T18:01:17.389Z,83.40
2023-01-13T18:03:45.803Z,82.90
2023-01-13T18:06:17.786Z,82.60
2023-01-13T18:08:46.544Z,83.10
2023-01-13T18:11:14.727Z,83.20
2023-01-13T18:13:44.103Z,83.10
2023-01-13T18:16:14.013Z,82.90
2023-01-13T18:18:43.630Z,83.20
2023-01-13T18:21:35.849Z,82.00
2023-01-13T18:24:21.834Z,81.90
2023-01-13T18:27:07.350Z,81.90
2023-01-13T18:29:36.560Z,82.80
2023-01-13T18:32:05.144Z,81.90
2023-01-13T18:34:33.074Z,81.10
2023-01-13T18:37:00.929Z,81.10
2023-01-13T18:39:28.964Z,81.60
2023-01-13T18:42:14.417Z,81.70
2023-01-13T18:44:43.709Z,81.90
2023-01-13T18:47:11.618Z,81.20
2023-01-13T18:49:39.529Z,81.20
2023-01-13T18:52:07.613Z,81.40
2023-01-13T18:54:35.560Z,81.60
2023-01-13T18:57:03.707Z,80.70
2023-01-13T18:59:33.183Z,80.20
2023-01-13T19:02:02.698Z,80.60
2023-01-13T19:04:32.470Z,80.90
2023-01-13T19:07:01.064Z,80.90
2023-01-13T19:09:29.765Z,81.70
2023-01-13T19:11:58.803Z,81.40
2023-01-13T19:14:37.439Z,81.00
2023-01-13T19:17:09.821Z,81.00
2023-01-13T19:19:42.303Z,81.00
2023-01-13T19:22:10.890Z,81.00
2023-01-13T19:24:41.823Z,80.40
2023-01-13T19:27:10.049Z,80.20
2023-01-13T19:29:37.985Z,80.20
2023-01-13T19:32:22.290Z,79.70
2023-01-13T19:34:51.236Z,79.90
2023-01-13T19:37:19.739Z,78.30
2023-01-13T19:39:47.699Z,78.20
2023-01-13T19:42:33.324Z,78.50
2023-01-13T19:45:18.826Z,78.40
2023-01-13T19:47:48.114Z,77.90
2023-01-13T19:50:16.454Z,77.20
2023-01-13T19:52:44.840Z,77.60
2023-01-13T19:55:13.494Z,77.20
2023-01-13T19:57:41.596Z,77.40
2023-01-13T20:00:13.938Z,76.90
2023-01-13T20:02:47.715Z,76.50
2023-01-13T20:05:21.308Z,76.50
2023-01-13T20:07:50.672Z,76.90
2023-01-13T20:10:20.185Z,77.00
2023-01-13T20:12:48.371Z,76.90
2023-01-13T20:15:16.430Z,76.50
2023-01-13T20:17:44.329Z,76.70
2023-01-13T20:20:13.581Z,76.60
2023-01-13T20:22:42.814Z,76.50
2023-01-13T20:25:13.217Z,74.90
2023-01-13T20:27:41.484Z,75.10
2023-01-13T20:30:13.453Z,75.60
2023-01-13T20:32:41.711Z,76.00
2023-01-13T20:35:10.666Z,75.90
2023-01-13T20:37:43.767Z,76.10
2023-01-13T20:40:15.209Z,76.20
2023-01-13T20:42:45.513Z,76.20
2023-01-13T20:45:20.827Z,76.10
2023-01-13T20:47:48.792Z,76.10
2023-01-13T20:50:17.379Z,76.10
2023-01-13T20:52:47.246Z,76.10
2023-01-13T20:55:15.808Z,76.60
2023-01-13T20:57:43.779Z,76.60
2023-01-13T21:00:12.668Z,76.10
2023-01-13T21:02:41.710Z,76.00
2023-01-13T21:05:09.782Z,76.60
2023-01-13T21:07:37.695Z,76.90
2023-01-13T21:10:07.920Z,76.50
2023-01-13T21:12:53.565Z,76.70
2023-01-13T21:15:22.123Z,76.00
2023-01-13T21:18:09.592Z,76.00
2023-01-13T21:20:38.841Z,76.70
2023-01-13T21:23:07.643Z,76.70
2023-01-13T21:25:39.700Z,77.30
2023-01-13T21:28:09.448Z,77.70
2023-01-13T21:30:38.411Z,77.60
2023-01-13T21:33:06.446Z,77.90
2023-01-13T21:35:34.747Z,77.80
2023-01-13T21:38:02.679Z,78.50
2023-01-13T21:40:30.562Z,78.50
2023-01-13T21:43:17.347Z,78.90
2023-01-13T21:46:05.288Z,79.90
2023-01-13T21:48:33.518Z,79.30
2023-01-13T21:51:02.111Z,79.40
2023-01-13T21:53:30.019Z,80.80
2023-01-13T21:55:57.945Z,80.00
2023-01-13T21:58:27.337Z,80.40
2023-01-13T22:00:55.432Z,79.80
2023-01-13T22:03:23.412Z,80.10
2023-01-13T22:05:55.572Z,80.40
2023-01-13T22:08:23.536Z,80.40
2023-01-13T22:10:58.005Z,80.40
2023-01-13T22:13:46.224Z,80.70
2023-01-13T22:16:15.520Z,80.10
2023-01-13T22:18:43.496Z,79.80
2023-01-13T22:21:11.803Z,79.70
2023-01-13T22:23:39.993Z,79.70
2023-01-13T22:26:09.351Z,80.60
2023-01-13T22:28:42.882Z,81.30
2023-01-13T22:31:12.173Z,80.60
2023-01-13T22:33:41.184Z,80.60
2023-01-13T22:36:09.944Z,80.40
2023-01-13T22:38:37.902Z,80.20
2023-01-13T22:41:07.831Z,79.40
2023-01-13T22:43:36.663Z,79.40
2023-01-13T22:46:10.098Z,80.10
2023-01-13T22:48:38.472Z,79.70
2023-01-13T22:51:07.233Z,79.50
2023-01-13T22:53:35.320Z,79.50
2023-01-13T22:56:03.392Z,80.40
2023-01-13T22:58:31.617Z,80.00
2023-01-13T23:01:10.473Z,80.40
2023-01-13T23:03:38.512Z,81.70
2023-01-13T23:06:06.817Z,81.60
2023-01-13T23:08:35.284Z,82.90
2023-01-13T23:11:04.662Z,82.80
2023-01-13T23:13:32.771Z,83.20
2023-01-13T23:16:04.353Z,83.90
2023-01-13T23:18:33.877Z,83.70
2023-01-13T23:21:06.319Z,84.20
2023-01-13T23:23:35.155Z,84.70
2023-01-13T23:26:04.490Z,85.10
2023-01-13T23:28:33.298Z,85.30
2023-01-13T23:31:01.539Z,85.50
2023-01-13T23:33:29.445Z,86.00
2023-01-13T23:35:59.934Z,86.20
2023-01-13T23:38:28.647Z,86.50
2023-01-13T23:40:56.948Z,87.70
2023-01-13T23:43:26.230Z,87.40
2023-01-13T23:46:01.682Z,87.70
2023-01-13T23:48:29.700Z,87.30
2023-01-13T23:50:59.998Z,87.90
2023-01-13T23:53:33.406Z,88.60
2023-01-13T23:56:02.257Z,89.10
2023-01-13T23:58:31.165Z,88.70
